sensor_id;sensor_type;location;lat;lon;timestamp;P1;durP1;ratioP1;P2;durP2;ratioP2
27025;SDS011;14565;48.626;8.978;2023-12-28T00:00:42;2.47;;;1.45;;
27025;SDS011;14565;48.626;8.978;2023-12-28T00:03:08;2.45;;;1.50;;
27025;SDS011;14565;48.626;8.978;2023-12-28T00:05:33;2.28;;;1.50;;
27025;SDS011;14565;48.626;8.978;2023-12-28T00:07:59;2.38;;;1.30;;
27025;SDS011;14565;48.626;8.978;2023-12-28T00:10:26;3.35;;;1.70;;
27025;SDS011;14565;48.626;8.978;2023-12-28T00:12:53;2.83;;;1.60;;
27025;SDS011;14565;48.626;8.978;2023-12-28T00:15:19;3.38;;;1.50;;
27025;SDS011;14565;48.626;8.978;2023-12-28T00:17:44;3.00;;;1.42;;
27025;SDS011;14565;48.626;8.978;2023-12-28T00:20:10;2.70;;;1.50;;
27025;SDS011;14565;48.626;8.978;2023-12-28T00:22:37;1.52;;;1.20;;
27025;SDS011;14565;48.626;8.978;2023-12-28T00:25:03;3.22;;;1.20;;
27025;SDS011;14565;48.626;8.978;2023-12-28T00:27:29;3.70;;;1.70;;
27025;SDS011;14565;48.626;8.978;2023-12-28T00:29:55;2.67;;;1.48;;
27025;SDS011;14565;48.626;8.978;2023-12-28T00:32:20;2.30;;;1.60;;
27025;SDS011;14565;48.626;8.978;2023-12-28T00:34:46;2.80;;;1.42;;
27025;SDS011;14565;48.626;8.978;2023-12-28T00:37:12;2.67;;;1.67;;
27025;SDS011;14565;48.626;8.978;2023-12-28T00:39:37;3.85;;;1.52;;
27025;SDS011;14565;48.626;8.978;2023-12-28T00:42:04;2.08;;;1.58;;
27025;SDS011;14565;48.626;8.978;2023-12-28T00:44:30;3.65;;;1.60;;
27025;SDS011;14565;48.626;8.978;2023-12-28T00:46:55;3.15;;;1.60;;
27025;SDS011;14565;48.626;8.978;2023-12-28T00:49:21;3.03;;;1.50;;
27025;SDS011;14565;48.626;8.978;2023-12-28T00:51:47;2.28;;;1.50;;
27025;SDS011;14565;48.626;8.978;2023-12-28T00:54:12;2.15;;;1.20;;
27025;SDS011;14565;48.626;8.978;2023-12-28T00:56:38;2.60;;;1.55;;
27025;SDS011;14565;48.626;8.978;2023-12-28T00:59:03;2.95;;;1.38;;
27025;SDS011;14565;48.626;8.978;2023-12-28T01:01:29;3.60;;;1.30;;
27025;SDS011;14565;48.626;8.978;2023-12-28T01:03:57;3.13;;;1.10;;
27025;SDS011;14565;48.626;8.978;2023-12-28T01:06:23;2.10;;;1.30;;
27025;SDS011;14565;48.626;8.978;2023-12-28T01:08:53;2.80;;;1.60;;
27025;SDS011;14565;48.626;8.978;2023-12-28T01:11:19;2.47;;;1.42;;
27025;SDS011;14565;48.626;8.978;2023-12-28T01:13:45;2.42;;;1.27;;
27025;SDS011;14565;48.626;8.978;2023-12-28T01:16:14;2.28;;;1.33;;
27025;SDS011;14565;48.626;8.978;2023-12-28T01:18:40;2.92;;;1.45;;
27025;SDS011;14565;48.626;8.978;2023-12-28T01:21:06;2.13;;;1.25;;
27025;SDS011;14565;48.626;8.978;2023-12-28T01:23:32;3.33;;;1.30;;
27025;SDS011;14565;48.626;8.978;2023-12-28T01:25:59;4.32;;;1.17;;
27025;SDS011;14565;48.626;8.978;2023-12-28T01:28:25;3.95;;;1.17;;
27025;SDS011;14565;48.626;8.978;2023-12-28T01:30:50;2.85;;;1.10;;
27025;SDS011;14565;48.626;8.978;2023-12-28T01:33:16;2.70;;;1.08;;
27025;SDS011;14565;48.626;8.978;2023-12-28T01:35:42;3.42;;;1.10;;
27025;SDS011;14565;48.626;8.978;2023-12-28T01:38:07;2.70;;;1.30;;
27025;SDS011;14565;48.626;8.978;2023-12-28T01:40:33;2.10;;;1.13;;
27025;SDS011;14565;48.626;8.978;2023-12-28T01:42:59;1.52;;;1.00;;
27025;SDS011;14565;48.626;8.978;2023-12-28T01:45:25;2.08;;;1.40;;
27025;SDS011;14565;48.626;8.978;2023-12-28T01:47:52;1.98;;;1.15;;
27025;SDS011;14565;48.626;8.978;2023-12-28T01:50:20;2.40;;;1.10;;
27025;SDS011;14565;48.626;8.978;2023-12-28T01:52:47;2.55;;;1.38;;
27025;SDS011;14565;48.626;8.978;2023-12-28T01:55:14;2.38;;;1.15;;
27025;SDS011;14565;48.626;8.978;2023-12-28T01:57:40;4.38;;;1.30;;
27025;SDS011;14565;48.626;8.978;2023-12-28T02:00:06;1.30;;;1.02;;
27025;SDS011;14565;48.626;8.978;2023-12-28T02:02:32;2.08;;;1.17;;
27025;SDS011;14565;48.626;8.978;2023-12-28T02:04:59;2.28;;;1.38;;
27025;SDS011;14565;48.626;8.978;2023-12-28T02:07:25;1.60;;;0.98;;
27025;SDS011;14565;48.626;8.978;2023-12-28T02:09:50;2.30;;;0.90;;
27025;SDS011;14565;48.626;8.978;2023-12-28T02:12:16;3.08;;;1.13;;
27025;SDS011;14565;48.626;8.978;2023-12-28T02:14:42;3.00;;;1.00;;
27025;SDS011;14565;48.626;8.978;2023-12-28T02:17:27;2.83;;;1.23;;
27025;SDS011;14565;48.626;8.978;2023-12-28T02:19:58;1.38;;;0.82;;
27025;SDS011;14565;48.626;8.978;2023-12-28T02:22:25;1.95;;;1.13;;
27025;SDS011;14565;48.626;8.978;2023-12-28T02:27:23;5.53;;;1.38;;
27025;SDS011;14565;48.626;8.978;2023-12-28T02:29:49;3.65;;;1.10;;
27025;SDS011;14565;48.626;8.978;2023-12-28T02:32:15;1.73;;;1.20;;
27025;SDS011;14565;48.626;8.978;2023-12-28T02:34:43;2.60;;;1.30;;
27025;SDS011;14565;48.626;8.978;2023-12-28T02:39:38;1.60;;;1.08;;
27025;SDS011;14565;48.626;8.978;2023-12-28T02:42:06;2.10;;;1.00;;
27025;SDS011;14565;48.626;8.978;2023-12-28T02:44:31;2.08;;;1.10;;
27025;SDS011;14565;48.626;8.978;2023-12-28T02:46:57;2.85;;;1.30;;
27025;SDS011;14565;48.626;8.978;2023-12-28T02:49:22;1.73;;;0.98;;
27025;SDS011;14565;48.626;8.978;2023-12-28T02:51:48;1.98;;;0.90;;
27025;SDS011;14565;48.626;8.978;2023-12-28T02:54:14;1.52;;;0.90;;
27025;SDS011;14565;48.626;8.978;2023-12-28T02:56:40;2.45;;;0.93;;
27025;SDS011;14565;48.626;8.978;2023-12-28T02:59:06;1.75;;;1.00;;
27025;SDS011;14565;48.626;8.978;2023-12-28T03:01:31;4.32;;;1.15;;
27025;SDS011;14565;48.626;8.978;2023-12-28T03:03:57;2.58;;;1.30;;
27025;SDS011;14565;48.626;8.978;2023-12-28T03:06:23;3.97;;;0.90;;
27025;SDS011;14565;48.626;8.978;2023-12-28T03:08:48;2.22;;;1.05;;
27025;SDS011;14565;48.626;8.978;2023-12-28T03:11:14;1.77;;;1.08;;
27025;SDS011;14565;48.626;8.978;2023-12-28T03:13:40;2.00;;;1.10;;
27025;SDS011;14565;48.626;8.978;2023-12-28T03:16:05;2.22;;;1.10;;
27025;SDS011;14565;48.626;8.978;2023-12-28T03:18:31;1.73;;;0.98;;
27025;SDS011;14565;48.626;8.978;2023-12-28T03:20:57;3.50;;;1.20;;
27025;SDS011;14565;48.626;8.978;2023-12-28T03:23:22;1.85;;;0.90;;
27025;SDS011;14565;48.626;8.978;2023-12-28T03:25:48;2.85;;;1.23;;
27025;SDS011;14565;48.626;8.978;2023-12-28T03:28:13;2.03;;;1.25;;
27025;SDS011;14565;48.626;8.978;2023-12-28T03:30:39;5.70;;;1.20;;
27025;SDS011;14565;48.626;8.978;2023-12-28T03:33:05;1.73;;;1.00;;
27025;SDS011;14565;48.626;8.978;2023-12-28T03:35:30;3.58;;;1.33;;
27025;SDS011;14565;48.626;8.978;2023-12-28T03:37:56;2.80;;;1.23;;
27025;SDS011;14565;48.626;8.978;2023-12-28T03:40:21;2.33;;;1.20;;
27025;SDS011;14565;48.626;8.978;2023-12-28T03:42:47;2.58;;;1.10;;
27025;SDS011;14565;48.626;8.978;2023-12-28T03:45:13;2.47;;;1.25;;
27025;SDS011;14565;48.626;8.978;2023-12-28T03:47:38;2.97;;;1.10;;
27025;SDS011;14565;48.626;8.978;2023-12-28T03:50:04;1.90;;;0.90;;
27025;SDS011;14565;48.626;8.978;2023-12-28T03:52:31;3.25;;;1.13;;
27025;SDS011;14565;48.626;8.978;2023-12-28T03:54:57;2.75;;;1.10;;
27025;SDS011;14565;48.626;8.978;2023-12-28T03:57:22;2.13;;;1.20;;
27025;SDS011;14565;48.626;8.978;2023-12-28T03:59:48;2.83;;;1.20;;
27025;SDS011;14565;48.626;8.978;2023-12-28T04:02:14;2.28;;;1.00;;
27025;SDS011;14565;48.626;8.978;2023-12-28T04:04:39;2.70;;;1.40;;
27025;SDS011;14565;48.626;8.978;2023-12-28T04:07:05;2.05;;;1.30;;
27025;SDS011;14565;48.626;8.978;2023-12-28T04:09:34;2.85;;;1.27;;
27025;SDS011;14565;48.626;8.978;2023-12-28T04:11:59;3.15;;;0.90;;
27025;SDS011;14565;48.626;8.978;2023-12-28T04:14:25;2.17;;;1.25;;
27025;SDS011;14565;48.626;8.978;2023-12-28T04:16:50;2.15;;;1.40;;
27025;SDS011;14565;48.626;8.978;2023-12-28T04:19:16;2.00;;;1.00;;
27025;SDS011;14565;48.626;8.978;2023-12-28T04:21:42;1.80;;;1.00;;
27025;SDS011;14565;48.626;8.978;2023-12-28T04:24:09;2.13;;;1.20;;
27025;SDS011;14565;48.626;8.978;2023-12-28T04:26:35;1.55;;;1.05;;
27025;SDS011;14565;48.626;8.978;2023-12-28T04:29:01;2.03;;;1.10;;
27025;SDS011;14565;48.626;8.978;2023-12-28T04:31:27;2.30;;;1.10;;
27025;SDS011;14565;48.626;8.978;2023-12-28T04:33:52;2.28;;;1.02;;
27025;SDS011;14565;48.626;8.978;2023-12-28T04:36:18;2.35;;;1.13;;
27025;SDS011;14565;48.626;8.978;2023-12-28T04:38:44;2.08;;;1.00;;
27025;SDS011;14565;48.626;8.978;2023-12-28T04:41:10;2.13;;;1.30;;
27025;SDS011;14565;48.626;8.978;2023-12-28T04:43:36;3.13;;;1.00;;
27025;SDS011;14565;48.626;8.978;2023-12-28T04:46:04;1.80;;;1.08;;
27025;SDS011;14565;48.626;8.978;2023-12-28T04:48:30;4.55;;;0.90;;
27025;SDS011;14565;48.626;8.978;2023-12-28T04:50:56;2.28;;;1.17;;
27025;SDS011;14565;48.626;8.978;2023-12-28T04:53:22;2.97;;;1.20;;
27025;SDS011;14565;48.626;8.978;2023-12-28T04:55:47;2.42;;;1.02;;
27025;SDS011;14565;48.626;8.978;2023-12-28T04:58:13;2.53;;;1.20;;
27025;SDS011;14565;48.626;8.978;2023-12-28T05:00:39;2.05;;;1.33;;
27025;SDS011;14565;48.626;8.978;2023-12-28T05:03:04;1.80;;;1.00;;
27025;SDS011;14565;48.626;8.978;2023-12-28T05:05:31;1.92;;;1.02;;
27025;SDS011;14565;48.626;8.978;2023-12-28T05:07:57;2.00;;;1.10;;
27025;SDS011;14565;48.626;8.978;2023-12-28T05:10:23;4.22;;;1.20;;
27025;SDS011;14565;48.626;8.978;2023-12-28T05:12:48;2.40;;;1.00;;
27025;SDS011;14565;48.626;8.978;2023-12-28T05:15:14;1.85;;;1.10;;
27025;SDS011;14565;48.626;8.978;2023-12-28T05:17:40;2.40;;;1.10;;
27025;SDS011;14565;48.626;8.978;2023-12-28T05:20:06;1.92;;;1.00;;
27025;SDS011;14565;48.626;8.978;2023-12-28T05:22:32;2.35;;;0.95;;
27025;SDS011;14565;48.626;8.978;2023-12-28T05:24:58;2.17;;;0.90;;
27025;SDS011;14565;48.626;8.978;2023-12-28T05:27:24;1.98;;;1.00;;
27025;SDS011;14565;48.626;8.978;2023-12-28T05:29:49;1.42;;;0.80;;
27025;SDS011;14565;48.626;8.978;2023-12-28T05:32:15;2.97;;;1.10;;
27025;SDS011;14565;48.626;8.978;2023-12-28T05:34:41;2.58;;;1.20;;
27025;SDS011;14565;48.626;8.978;2023-12-28T05:37:06;2.33;;;0.98;;
27025;SDS011;14565;48.626;8.978;2023-12-28T05:39:32;1.92;;;0.90;;
27025;SDS011;14565;48.626;8.978;2023-12-28T05:41:57;1.38;;;0.90;;
27025;SDS011;14565;48.626;8.978;2023-12-28T05:44:23;2.78;;;1.20;;
27025;SDS011;14565;48.626;8.978;2023-12-28T05:46:49;1.85;;;0.98;;
27025;SDS011;14565;48.626;8.978;2023-12-28T05:49:15;3.17;;;1.10;;
27025;SDS011;14565;48.626;8.978;2023-12-28T05:51:40;2.80;;;1.08;;
27025;SDS011;14565;48.626;8.978;2023-12-28T05:54:07;2.08;;;1.00;;
27025;SDS011;14565;48.626;8.978;2023-12-28T05:56:33;1.65;;;1.00;;
27025;SDS011;14565;48.626;8.978;2023-12-28T05:58:59;2.63;;;1.13;;
27025;SDS011;14565;48.626;8.978;2023-12-28T06:01:24;2.40;;;0.95;;
27025;SDS011;14565;48.626;8.978;2023-12-28T06:03:51;1.90;;;1.08;;
27025;SDS011;14565;48.626;8.978;2023-12-28T06:06:17;3.58;;;1.05;;
27025;SDS011;14565;48.626;8.978;2023-12-28T06:08:43;3.80;;;1.10;;
27025;SDS011;14565;48.626;8.978;2023-12-28T06:11:09;2.20;;;1.10;;
27025;SDS011;14565;48.626;8.978;2023-12-28T06:13:35;1.85;;;1.08;;
27025;SDS011;14565;48.626;8.978;2023-12-28T06:16:01;1.98;;;0.98;;
27025;SDS011;14565;48.626;8.978;2023-12-28T06:18:26;1.40;;;0.90;;
27025;SDS011;14565;48.626;8.978;2023-12-28T06:20:52;4.65;;;1.00;;
27025;SDS011;14565;48.626;8.978;2023-12-28T06:23:17;1.60;;;1.00;;
27025;SDS011;14565;48.626;8.978;2023-12-28T06:25:43;4.47;;;1.00;;
27025;SDS011;14565;48.626;8.978;2023-12-28T06:28:09;3.55;;;0.98;;
27025;SDS011;14565;48.626;8.978;2023-12-28T06:30:34;2.25;;;1.10;;
27025;SDS011;14565;48.626;8.978;2023-12-28T06:33:00;3.40;;;1.02;;
27025;SDS011;14565;48.626;8.978;2023-12-28T06:35:26;1.67;;;0.90;;
27025;SDS011;14565;48.626;8.978;2023-12-28T06:37:51;1.40;;;0.80;;
27025;SDS011;14565;48.626;8.978;2023-12-28T06:40:17;3.78;;;1.95;;
27025;SDS011;14565;48.626;8.978;2023-12-28T06:42:43;9.30;;;2.95;;
27025;SDS011;14565;48.626;8.978;2023-12-28T06:45:09;7.47;;;2.70;;
27025;SDS011;14565;48.626;8.978;2023-12-28T06:47:35;4.15;;;1.20;;
27025;SDS011;14565;48.626;8.978;2023-12-28T06:50:01;3.50;;;1.05;;
27025;SDS011;14565;48.626;8.978;2023-12-28T06:52:26;1.70;;;0.82;;
27025;SDS011;14565;48.626;8.978;2023-12-28T06:54:52;1.40;;;0.90;;
27025;SDS011;14565;48.626;8.978;2023-12-28T06:57:18;2.10;;;0.77;;
27025;SDS011;14565;48.626;8.978;2023-12-28T06:59:44;2.88;;;0.85;;
27025;SDS011;14565;48.626;8.978;2023-12-28T07:02:09;2.72;;;1.10;;
27025;SDS011;14565;48.626;8.978;2023-12-28T07:04:35;3.92;;;1.10;;
27025;SDS011;14565;48.626;8.978;2023-12-28T07:07:01;3.40;;;1.00;;
27025;SDS011;14565;48.626;8.978;2023-12-28T07:09:26;3.40;;;1.00;;
27025;SDS011;14565;48.626;8.978;2023-12-28T07:11:52;1.25;;;0.80;;
27025;SDS011;14565;48.626;8.978;2023-12-28T07:14:18;3.15;;;1.00;;
27025;SDS011;14565;48.626;8.978;2023-12-28T07:16:43;3.20;;;1.00;;
27025;SDS011;14565;48.626;8.978;2023-12-28T07:19:09;2.22;;;0.85;;
27025;SDS011;14565;48.626;8.978;2023-12-28T07:21:34;2.17;;;0.95;;
27025;SDS011;14565;48.626;8.978;2023-12-28T07:24:00;1.77;;;0.90;;
27025;SDS011;14565;48.626;8.978;2023-12-28T07:26:26;1.50;;;1.00;;
27025;SDS011;14565;48.626;8.978;2023-12-28T07:28:51;2.83;;;1.02;;
27025;SDS011;14565;48.626;8.978;2023-12-28T07:31:24;1.98;;;0.88;;
27025;SDS011;14565;48.626;8.978;2023-12-28T07:33:50;2.45;;;1.00;;
27025;SDS011;14565;48.626;8.978;2023-12-28T07:36:16;2.00;;;0.98;;
27025;SDS011;14565;48.626;8.978;2023-12-28T07:38:42;2.83;;;0.88;;
27025;SDS011;14565;48.626;8.978;2023-12-28T07:41:09;3.42;;;1.10;;
27025;SDS011;14565;48.626;8.978;2023-12-28T07:43:35;5.57;;;1.42;;
27025;SDS011;14565;48.626;8.978;2023-12-28T07:46:01;2.90;;;1.25;;
27025;SDS011;14565;48.626;8.978;2023-12-28T07:48:27;6.13;;;1.77;;
27025;SDS011;14565;48.626;8.978;2023-12-28T07:50:55;2.00;;;0.98;;
27025;SDS011;14565;48.626;8.978;2023-12-28T07:53:21;1.95;;;1.00;;
27025;SDS011;14565;48.626;8.978;2023-12-28T07:55:47;1.65;;;0.98;;
27025;SDS011;14565;48.626;8.978;2023-12-28T07:58:13;3.22;;;1.15;;
27025;SDS011;14565;48.626;8.978;2023-12-28T08:00:39;1.70;;;1.00;;
27025;SDS011;14565;48.626;8.978;2023-12-28T08:03:05;2.58;;;0.90;;
27025;SDS011;14565;48.626;8.978;2023-12-28T08:05:30;2.47;;;1.00;;
27025;SDS011;14565;48.626;8.978;2023-12-28T08:07:56;3.42;;;1.13;;
27025;SDS011;14565;48.626;8.978;2023-12-28T08:10:22;1.98;;;0.98;;
27025;SDS011;14565;48.626;8.978;2023-12-28T08:12:47;3.40;;;0.93;;
27025;SDS011;14565;48.626;8.978;2023-12-28T08:15:13;1.65;;;0.90;;
27025;SDS011;14565;48.626;8.978;2023-12-28T08:17:39;2.25;;;1.00;;
27025;SDS011;14565;48.626;8.978;2023-12-28T08:20:05;3.22;;;1.38;;
27025;SDS011;14565;48.626;8.978;2023-12-28T08:22:31;3.88;;;1.00;;
27025;SDS011;14565;48.626;8.978;2023-12-28T08:24:57;2.25;;;0.90;;
27025;SDS011;14565;48.626;8.978;2023-12-28T08:27:23;2.45;;;0.90;;
27025;SDS011;14565;48.626;8.978;2023-12-28T08:29:48;3.17;;;1.00;;
27025;SDS011;14565;48.626;8.978;2023-12-28T08:32:14;3.08;;;1.13;;
27025;SDS011;14565;48.626;8.978;2023-12-28T08:34:40;3.38;;;1.10;;
27025;SDS011;14565;48.626;8.978;2023-12-28T08:37:05;3.90;;;1.15;;
27025;SDS011;14565;48.626;8.978;2023-12-28T08:39:31;2.10;;;1.23;;
27025;SDS011;14565;48.626;8.978;2023-12-28T08:41:57;4.18;;;1.67;;
27025;SDS011;14565;48.626;8.978;2023-12-28T08:44:23;4.93;;;2.00;;
27025;SDS011;14565;48.626;8.978;2023-12-28T08:46:48;3.25;;;1.75;;
27025;SDS011;14565;48.626;8.978;2023-12-28T08:49:14;2.38;;;1.60;;
27025;SDS011;14565;48.626;8.978;2023-12-28T08:51:40;3.10;;;1.48;;
27025;SDS011;14565;48.626;8.978;2023-12-28T08:54:07;2.60;;;1.30;;
27025;SDS011;14565;48.626;8.978;2023-12-28T08:56:34;1.75;;;1.08;;
27025;SDS011;14565;48.626;8.978;2023-12-28T08:58:59;4.30;;;1.58;;
27025;SDS011;14565;48.626;8.978;2023-12-28T09:01:25;3.05;;;1.30;;
27025;SDS011;14565;48.626;8.978;2023-12-28T09:03:52;2.92;;;1.17;;
27025;SDS011;14565;48.626;8.978;2023-12-28T09:06:19;4.13;;;1.17;;
27025;SDS011;14565;48.626;8.978;2023-12-28T09:08:47;2.40;;;1.00;;
27025;SDS011;14565;48.626;8.978;2023-12-28T09:11:14;3.72;;;0.80;;
27025;SDS011;14565;48.626;8.978;2023-12-28T09:13:40;3.33;;;1.23;;
27025;SDS011;14565;48.626;8.978;2023-12-28T09:16:10;6.82;;;1.10;;
27025;SDS011;14565;48.626;8.978;2023-12-28T09:18:37;4.32;;;1.30;;
27025;SDS011;14565;48.626;8.978;2023-12-28T09:21:03;3.38;;;1.30;;
27025;SDS011;14565;48.626;8.978;2023-12-28T09:23:30;2.40;;;1.20;;
27025;SDS011;14565;48.626;8.978;2023-12-28T09:25:56;4.25;;;1.20;;
27025;SDS011;14565;48.626;8.978;2023-12-28T09:28:23;4.80;;;1.02;;
27025;SDS011;14565;48.626;8.978;2023-12-28T09:30:49;2.83;;;1.00;;
27025;SDS011;14565;48.626;8.978;2023-12-28T09:33:14;5.35;;;1.05;;
27025;SDS011;14565;48.626;8.978;2023-12-28T09:35:41;2.28;;;1.35;;
27025;SDS011;14565;48.626;8.978;2023-12-28T09:38:07;1.63;;;0.93;;
27025;SDS011;14565;48.626;8.978;2023-12-28T09:40:33;2.17;;;1.10;;
27025;SDS011;14565;48.626;8.978;2023-12-28T09:45:36;3.17;;;1.23;;
27025;SDS011;14565;48.626;8.978;2023-12-28T09:48:03;3.60;;;1.20;;
27025;SDS011;14565;48.626;8.978;2023-12-28T09:50:29;5.53;;;1.20;;
27025;SDS011;14565;48.626;8.978;2023-12-28T09:52:55;4.30;;;1.45;;
27025;SDS011;14565;48.626;8.978;2023-12-28T09:55:21;4.15;;;1.08;;
27025;SDS011;14565;48.626;8.978;2023-12-28T09:57:47;2.08;;;1.08;;
27025;SDS011;14565;48.626;8.978;2023-12-28T10:00:13;2.35;;;1.10;;
27025;SDS011;14565;48.626;8.978;2023-12-28T10:02:39;2.20;;;1.10;;
27025;SDS011;14565;48.626;8.978;2023-12-28T10:05:10;2.25;;;1.08;;
27025;SDS011;14565;48.626;8.978;2023-12-28T10:07:44;3.85;;;1.20;;
27025;SDS011;14565;48.626;8.978;2023-12-28T10:10:10;4.22;;;1.10;;
27025;SDS011;14565;48.626;8.978;2023-12-28T10:12:37;2.15;;;0.90;;
27025;SDS011;14565;48.626;8.978;2023-12-28T10:15:06;2.63;;;1.27;;
27025;SDS011;14565;48.626;8.978;2023-12-28T10:17:32;3.30;;;1.33;;
27025;SDS011;14565;48.626;8.978;2023-12-28T10:19:59;2.67;;;1.10;;
27025;SDS011;14565;48.626;8.978;2023-12-28T10:22:29;3.33;;;1.20;;
27025;SDS011;14565;48.626;8.978;2023-12-28T10:24:56;4.35;;;1.75;;
27025;SDS011;14565;48.626;8.978;2023-12-28T10:27:22;3.55;;;1.50;;
27025;SDS011;14565;48.626;8.978;2023-12-28T10:29:48;2.95;;;1.17;;
27025;SDS011;14565;48.626;8.978;2023-12-28T10:32:17;2.33;;;1.15;;
27025;SDS011;14565;48.626;8.978;2023-12-28T10:34:43;2.67;;;1.10;;
27025;SDS011;14565;48.626;8.978;2023-12-28T10:37:09;3.47;;;0.95;;
27025;SDS011;14565;48.626;8.978;2023-12-28T10:39:36;2.88;;;1.38;;
27025;SDS011;14565;48.626;8.978;2023-12-28T10:42:05;3.55;;;1.30;;
27025;SDS011;14565;48.626;8.978;2023-12-28T10:44:36;1.80;;;1.05;;
27025;SDS011;14565;48.626;8.978;2023-12-28T10:47:06;1.80;;;1.10;;
27025;SDS011;14565;48.626;8.978;2023-12-28T10:49:37;3.33;;;1.70;;
27025;SDS011;14565;48.626;8.978;2023-12-28T10:52:06;1.80;;;1.10;;
27025;SDS011;14565;48.626;8.978;2023-12-28T10:57:33;4.85;;;1.13;;
27025;SDS011;14565;48.626;8.978;2023-12-28T11:00:25;2.55;;;1.05;;
27025;SDS011;14565;48.626;8.978;2023-12-28T11:02:57;2.00;;;1.00;;
27025;SDS011;14565;48.626;8.978;2023-12-28T11:05:29;3.25;;;1.10;;
27025;SDS011;14565;48.626;8.978;2023-12-28T11:07:55;2.37;;;1.27;;
27025;SDS011;14565;48.626;8.978;2023-12-28T11:10:23;2.60;;;1.15;;
27025;SDS011;14565;48.626;8.978;2023-12-28T11:12:53;2.85;;;1.25;;
27025;SDS011;14565;48.626;8.978;2023-12-28T11:15:19;4.03;;;1.30;;
27025;SDS011;14565;48.626;8.978;2023-12-28T11:17:46;1.75;;;1.10;;
27025;SDS011;14565;48.626;8.978;2023-12-28T11:20:11;5.18;;;2.40;;
27025;SDS011;14565;48.626;8.978;2023-12-28T11:22:38;12.37;;;5.17;;
27025;SDS011;14565;48.626;8.978;2023-12-28T11:25:05;15.07;;;5.70;;
27025;SDS011;14565;48.626;8.978;2023-12-28T11:27:34;12.40;;;4.03;;
27025;SDS011;14565;48.626;8.978;2023-12-28T11:30:01;5.93;;;2.53;;
27025;SDS011;14565;48.626;8.978;2023-12-28T11:32:33;2.85;;;1.30;;
27025;SDS011;14565;48.626;8.978;2023-12-28T11:35:01;2.08;;;0.90;;
27025;SDS011;14565;48.626;8.978;2023-12-28T11:37:31;1.70;;;0.90;;
27025;SDS011;14565;48.626;8.978;2023-12-28T11:42:34;1.52;;;0.90;;
27025;SDS011;14565;48.626;8.978;2023-12-28T11:45:00;3.45;;;1.20;;
27025;SDS011;14565;48.626;8.978;2023-12-28T11:47:26;2.25;;;1.00;;
27025;SDS011;14565;48.626;8.978;2023-12-28T11:49:54;6.00;;;1.23;;
27025;SDS011;14565;48.626;8.978;2023-12-28T11:52:31;1.63;;;0.93;;
27025;SDS011;14565;48.626;8.978;2023-12-28T11:54:57;1.88;;;1.00;;
27025;SDS011;14565;48.626;8.978;2023-12-28T11:57:26;1.70;;;0.95;;
27025;SDS011;14565;48.626;8.978;2023-12-28T11:59:58;2.08;;;1.00;;
27025;SDS011;14565;48.626;8.978;2023-12-28T12:02:25;2.03;;;0.93;;
27025;SDS011;14565;48.626;8.978;2023-12-28T12:04:51;2.63;;;0.90;;
27025;SDS011;14565;48.626;8.978;2023-12-28T12:07:18;3.20;;;1.17;;
27025;SDS011;14565;48.626;8.978;2023-12-28T12:09:44;1.55;;;1.00;;
27025;SDS011;14565;48.626;8.978;2023-12-28T12:12:10;1.92;;;0.95;;
27025;SDS011;14565;48.626;8.978;2023-12-28T12:14:36;1.98;;;1.35;;
27025;SDS011;14565;48.626;8.978;2023-12-28T12:17:02;2.15;;;1.15;;
27025;SDS011;14565;48.626;8.978;2023-12-28T12:19:28;3.15;;;0.93;;
27025;SDS011;14565;48.626;8.978;2023-12-28T12:21:54;1.98;;;1.00;;
27025;SDS011;14565;48.626;8.978;2023-12-28T12:24:21;2.08;;;1.20;;
27025;SDS011;14565;48.626;8.978;2023-12-28T12:26:51;2.03;;;1.30;;
27025;SDS011;14565;48.626;8.978;2023-12-28T12:29:17;2.22;;;1.08;;
27025;SDS011;14565;48.626;8.978;2023-12-28T12:31:44;3.17;;;1.20;;
27025;SDS011;14565;48.626;8.978;2023-12-28T12:34:13;2.67;;;1.02;;
27025;SDS011;14565;48.626;8.978;2023-12-28T12:36:41;2.47;;;1.30;;
27025;SDS011;14565;48.626;8.978;2023-12-28T12:39:09;2.03;;;1.15;;
27025;SDS011;14565;48.626;8.978;2023-12-28T12:41:36;2.72;;;1.30;;
27025;SDS011;14565;48.626;8.978;2023-12-28T12:44:02;4.05;;;1.05;;
27025;SDS011;14565;48.626;8.978;2023-12-28T12:46:29;2.30;;;1.00;;
27025;SDS011;14565;48.626;8.978;2023-12-28T12:51:26;2.22;;;1.40;;
27025;SDS011;14565;48.626;8.978;2023-12-28T12:53:58;2.08;;;1.10;;
27025;SDS011;14565;48.626;8.978;2023-12-28T12:56:27;1.90;;;1.08;;
27025;SDS011;14565;48.626;8.978;2023-12-28T12:58:54;2.35;;;1.10;;
27025;SDS011;14565;48.626;8.978;2023-12-28T13:01:21;2.33;;;1.30;;
27025;SDS011;14565;48.626;8.978;2023-12-28T13:03:47;3.20;;;1.30;;
27025;SDS011;14565;48.626;8.978;2023-12-28T13:06:12;1.75;;;1.00;;
27025;SDS011;14565;48.626;8.978;2023-12-28T13:08:38;1.23;;;1.10;;
27025;SDS011;14565;48.626;8.978;2023-12-28T13:11:04;2.38;;;1.38;;
27025;SDS011;14565;48.626;8.978;2023-12-28T13:13:33;3.30;;;1.20;;
27025;SDS011;14565;48.626;8.978;2023-12-28T13:16:00;2.28;;;0.90;;
27025;SDS011;14565;48.626;8.978;2023-12-28T13:18:26;3.95;;;2.03;;
27025;SDS011;14565;48.626;8.978;2023-12-28T13:20:52;2.88;;;1.42;;
27025;SDS011;14565;48.626;8.978;2023-12-28T13:23:17;4.38;;;2.10;;
27025;SDS011;14565;48.626;8.978;2023-12-28T13:25:43;4.00;;;2.42;;
27025;SDS011;14565;48.626;8.978;2023-12-28T13:28:09;3.45;;;1.48;;
27025;SDS011;14565;48.626;8.978;2023-12-28T13:30:35;2.03;;;0.95;;
27025;SDS011;14565;48.626;8.978;2023-12-28T13:33:05;2.42;;;1.50;;
27025;SDS011;14565;48.626;8.978;2023-12-28T13:35:31;4.40;;;1.90;;
27025;SDS011;14565;48.626;8.978;2023-12-28T13:38:00;3.33;;;1.48;;
27025;SDS011;14565;48.626;8.978;2023-12-28T13:40:28;3.35;;;1.83;;
27025;SDS011;14565;48.626;8.978;2023-12-28T13:42:56;7.03;;;3.00;;
27025;SDS011;14565;48.626;8.978;2023-12-28T13:45:21;8.00;;;3.08;;
27025;SDS011;14565;48.626;8.978;2023-12-28T13:47:47;5.03;;;2.03;;
27025;SDS011;14565;48.626;8.978;2023-12-28T13:50:12;9.13;;;4.50;;
27025;SDS011;14565;48.626;8.978;2023-12-28T13:52:38;3.45;;;1.73;;
27025;SDS011;14565;48.626;8.978;2023-12-28T13:55:04;5.10;;;2.53;;
27025;SDS011;14565;48.626;8.978;2023-12-28T13:57:30;3.85;;;1.92;;
27025;SDS011;14565;48.626;8.978;2023-12-28T13:59:56;4.25;;;2.20;;
27025;SDS011;14565;48.626;8.978;2023-12-28T14:02:25;2.78;;;1.70;;
27025;SDS011;14565;48.626;8.978;2023-12-28T14:04:55;4.72;;;1.88;;
27025;SDS011;14565;48.626;8.978;2023-12-28T14:07:21;2.40;;;1.58;;
27025;SDS011;14565;48.626;8.978;2023-12-28T14:09:50;4.18;;;1.45;;
27025;SDS011;14565;48.626;8.978;2023-12-28T14:12:16;2.88;;;1.70;;
27025;SDS011;14565;48.626;8.978;2023-12-28T14:14:42;2.67;;;1.60;;
27025;SDS011;14565;48.626;8.978;2023-12-28T14:17:07;5.15;;;1.70;;
27025;SDS011;14565;48.626;8.978;2023-12-28T14:19:33;5.25;;;1.90;;
27025;SDS011;14565;48.626;8.978;2023-12-28T14:21:59;5.70;;;2.08;;
27025;SDS011;14565;48.626;8.978;2023-12-28T14:24:25;6.00;;;2.13;;
27025;SDS011;14565;48.626;8.978;2023-12-28T14:26:55;5.25;;;2.08;;
27025;SDS011;14565;48.626;8.978;2023-12-28T14:29:21;4.30;;;2.00;;
27025;SDS011;14565;48.626;8.978;2023-12-28T14:31:48;4.40;;;2.17;;
27025;SDS011;14565;48.626;8.978;2023-12-28T14:34:14;3.75;;;1.65;;
27025;SDS011;14565;48.626;8.978;2023-12-28T14:36:40;3.83;;;1.73;;
27025;SDS011;14565;48.626;8.978;2023-12-28T14:39:07;3.05;;;1.90;;
27025;SDS011;14565;48.626;8.978;2023-12-28T14:41:33;5.90;;;1.67;;
27025;SDS011;14565;48.626;8.978;2023-12-28T14:44:00;3.72;;;1.58;;
27025;SDS011;14565;48.626;8.978;2023-12-28T14:46:26;3.20;;;1.60;;
27025;SDS011;14565;48.626;8.978;2023-12-28T14:48:52;3.95;;;1.80;;
27025;SDS011;14565;48.626;8.978;2023-12-28T14:51:18;3.78;;;1.35;;
27025;SDS011;14565;48.626;8.978;2023-12-28T14:53:44;5.35;;;1.83;;
27025;SDS011;14565;48.626;8.978;2023-12-28T14:56:09;5.25;;;1.67;;
27025;SDS011;14565;48.626;8.978;2023-12-28T14:58:36;3.22;;;1.60;;